sensor_id;sensor_type;location;lat;lon;timestamp;P1;durP1;ratioP1;P2;durP2;ratioP2
24277;SDS011;12394;42.692;23.314;2022-10-23T00:00:47;34.07;;;19.00;;
24277;SDS011;12394;42.692;23.314;2022-10-23T00:03:12;25.90;;;17.60;;
24277;SDS011;12394;42.692;23.314;2022-10-23T00:05:38;25.50;;;16.83;;
24277;SDS011;12394;42.692;23.314;2022-10-23T00:08:04;26.63;;;15.87;;
24277;SDS011;12394;42.692;23.314;2022-10-23T00:10:30;29.77;;;16.27;;
24277;SDS011;12394;42.692;23.314;2022-10-23T00:12:56;24.87;;;14.90;;
24277;SDS011;12394;42.692;23.314;2022-10-23T00:15:21;28.43;;;16.17;;
24277;SDS011;12394;42.692;23.314;2022-10-23T00:17:47;22.00;;;15.73;;
24277;SDS011;12394;42.692;23.314;2022-10-23T00:20:12;28.80;;;16.40;;
24277;SDS011;12394;42.692;23.314;2022-10-23T00:22:38;29.33;;;16.20;;
24277;SDS011;12394;42.692;23.314;2022-10-23T00:25:04;26.67;;;16.47;;
24277;SDS011;12394;42.692;23.314;2022-10-23T00:27:30;29.40;;;15.93;;
24277;SDS011;12394;42.692;23.314;2022-10-23T00:29:55;26.07;;;16.37;;
24277;SDS011;12394;42.692;23.314;2022-10-23T00:32:20;33.63;;;16.97;;
24277;SDS011;12394;42.692;23.314;2022-10-23T00:34:45;31.67;;;16.20;;
24277;SDS011;12394;42.692;23.314;2022-10-23T00:37:10;32.00;;;17.23;;
24277;SDS011;12394;42.692;23.314;2022-10-23T00:39:36;27.33;;;17.37;;
24277;SDS011;12394;42.692;23.314;2022-10-23T00:42:01;28.47;;;17.27;;
24277;SDS011;12394;42.692;23.314;2022-10-23T00:46:52;26.47;;;15.70;;
24277;SDS011;12394;42.692;23.314;2022-10-23T00:49:17;22.97;;;15.67;;
24277;SDS011;12394;42.692;23.314;2022-10-23T00:51:45;33.70;;;17.87;;
24277;SDS011;12394;42.692;23.314;2022-10-23T00:54:11;25.03;;;17.30;;
24277;SDS011;12394;42.692;23.314;2022-10-23T00:56:38;30.33;;;16.37;;
24277;SDS011;12394;42.692;23.314;2022-10-23T00:59:03;26.53;;;16.33;;
24277;SDS011;12394;42.692;23.314;2022-10-23T01:01:29;24.97;;;16.37;;
24277;SDS011;12394;42.692;23.314;2022-10-23T01:03:54;23.23;;;16.20;;
24277;SDS011;12394;42.692;23.314;2022-10-23T01:11:38;29.23;;;19.67;;
24277;SDS011;12394;42.692;23.314;2022-10-23T01:14:15;42.07;;;21.70;;
24277;SDS011;12394;42.692;23.314;2022-10-23T01:16:57;39.00;;;22.90;;
24277;SDS011;12394;42.692;23.314;2022-10-23T01:19:26;37.83;;;24.83;;
24277;SDS011;12394;42.692;23.314;2022-10-23T01:27:18;40.63;;;22.27;;
24277;SDS011;12394;42.692;23.314;2022-10-23T01:32:13;35.40;;;22.90;;
24277;SDS011;12394;42.692;23.314;2022-10-23T01:34:48;34.73;;;22.03;;
24277;SDS011;12394;42.692;23.314;2022-10-23T01:37:14;32.70;;;22.07;;
24277;SDS011;12394;42.692;23.314;2022-10-23T01:39:44;31.87;;;21.80;;
24277;SDS011;12394;42.692;23.314;2022-10-23T01:42:11;31.70;;;22.63;;
24277;SDS011;12394;42.692;23.314;2022-10-23T01:47:03;30.67;;;19.73;;
24277;SDS011;12394;42.692;23.314;2022-10-23T01:49:29;43.27;;;22.47;;
24277;SDS011;12394;42.692;23.314;2022-10-23T01:51:56;32.30;;;21.33;;
24277;SDS011;12394;42.692;23.314;2022-10-23T01:54:24;35.77;;;20.77;;
24277;SDS011;12394;42.692;23.314;2022-10-23T01:56:50;34.20;;;21.53;;
24277;SDS011;12394;42.692;23.314;2022-10-23T01:59:17;39.33;;;21.97;;
24277;SDS011;12394;42.692;23.314;2022-10-23T02:01:44;32.90;;;20.83;;
24277;SDS011;12394;42.692;23.314;2022-10-23T02:04:11;30.13;;;20.93;;
24277;SDS011;12394;42.692;23.314;2022-10-23T02:06:38;32.30;;;21.40;;
24277;SDS011;12394;42.692;23.314;2022-10-23T02:09:03;34.00;;;19.53;;
24277;SDS011;12394;42.692;23.314;2022-10-23T02:11:29;31.83;;;19.87;;
24277;SDS011;12394;42.692;23.314;2022-10-23T02:13:56;33.73;;;20.87;;
24277;SDS011;12394;42.692;23.314;2022-10-23T02:19:20;32.63;;;19.90;;
24277;SDS011;12394;42.692;23.314;2022-10-23T02:21:50;36.03;;;21.37;;
24277;SDS011;12394;42.692;23.314;2022-10-23T02:24:19;28.40;;;18.93;;
24277;SDS011;12394;42.692;23.314;2022-10-23T02:31:37;28.53;;;19.03;;
24277;SDS011;12394;42.692;23.314;2022-10-23T02:34:03;29.40;;;18.33;;
24277;SDS011;12394;42.692;23.314;2022-10-23T02:36:28;29.77;;;19.20;;
24277;SDS011;12394;42.692;23.314;2022-10-23T02:38:53;38.47;;;21.33;;
24277;SDS011;12394;42.692;23.314;2022-10-23T02:43:47;28.27;;;18.40;;
24277;SDS011;12394;42.692;23.314;2022-10-23T02:46:24;30.67;;;17.83;;
24277;SDS011;12394;42.692;23.314;2022-10-23T02:48:55;30.53;;;17.23;;
24277;SDS011;12394;42.692;23.314;2022-10-23T02:51:31;29.60;;;17.13;;
24277;SDS011;12394;42.692;23.314;2022-10-23T02:54:09;29.70;;;16.23;;
24277;SDS011;12394;42.692;23.314;2022-10-23T02:56:43;24.60;;;16.60;;
24277;SDS011;12394;42.692;23.314;2022-10-23T02:59:16;30.67;;;16.93;;
24277;SDS011;12394;42.692;23.314;2022-10-23T03:01:48;21.73;;;15.63;;
24277;SDS011;12394;42.692;23.314;2022-10-23T03:04:15;19.47;;;14.67;;
24277;SDS011;12394;42.692;23.314;2022-10-23T03:06:41;22.80;;;15.77;;
24277;SDS011;12394;42.692;23.314;2022-10-23T03:09:07;21.47;;;15.40;;
24277;SDS011;12394;42.692;23.314;2022-10-23T03:11:33;25.07;;;16.33;;
24277;SDS011;12394;42.692;23.314;2022-10-23T03:13:58;24.13;;;15.27;;
24277;SDS011;12394;42.692;23.314;2022-10-23T03:16:24;22.57;;;15.93;;
24277;SDS011;12394;42.692;23.314;2022-10-23T03:18:49;26.63;;;16.93;;
24277;SDS011;12394;42.692;23.314;2022-10-23T03:21:14;22.63;;;14.67;;
24277;SDS011;12394;42.692;23.314;2022-10-23T03:23:39;23.97;;;16.47;;
24277;SDS011;12394;42.692;23.314;2022-10-23T03:26:05;24.37;;;16.33;;
24277;SDS011;12394;42.692;23.314;2022-10-23T03:28:30;30.10;;;16.97;;
24277;SDS011;12394;42.692;23.314;2022-10-23T03:30:55;22.50;;;15.60;;
24277;SDS011;12394;42.692;23.314;2022-10-23T03:33:20;25.07;;;17.17;;
24277;SDS011;12394;42.692;23.314;2022-10-23T03:35:47;28.03;;;16.83;;
24277;SDS011;12394;42.692;23.314;2022-10-23T03:38:12;23.13;;;17.10;;
24277;SDS011;12394;42.692;23.314;2022-10-23T03:40:37;27.27;;;19.07;;
24277;SDS011;12394;42.692;23.314;2022-10-23T03:43:03;27.70;;;18.70;;
24277;SDS011;12394;42.692;23.314;2022-10-23T03:45:28;29.50;;;19.97;;
24277;SDS011;12394;42.692;23.314;2022-10-23T03:47:53;30.70;;;19.13;;
24277;SDS011;12394;42.692;23.314;2022-10-23T03:50:18;26.13;;;19.20;;
24277;SDS011;12394;42.692;23.314;2022-10-23T03:52:44;37.30;;;17.87;;
24277;SDS011;12394;42.692;23.314;2022-10-23T03:55:09;29.67;;;17.97;;
24277;SDS011;12394;42.692;23.314;2022-10-23T03:57:35;26.67;;;16.13;;
24277;SDS011;12394;42.692;23.314;2022-10-23T04:00:00;25.33;;;16.13;;
24277;SDS011;12394;42.692;23.314;2022-10-23T04:02:25;25.60;;;16.23;;
24277;SDS011;12394;42.692;23.314;2022-10-23T04:04:50;20.57;;;13.77;;
24277;SDS011;12394;42.692;23.314;2022-10-23T04:07:16;22.37;;;13.73;;
24277;SDS011;12394;42.692;23.314;2022-10-23T04:09:41;25.60;;;14.10;;
24277;SDS011;12394;42.692;23.314;2022-10-23T04:12:07;27.87;;;14.30;;
24277;SDS011;12394;42.692;23.314;2022-10-23T04:14:33;18.97;;;10.93;;
24277;SDS011;12394;42.692;23.314;2022-10-23T04:16:58;18.80;;;11.23;;
24277;SDS011;12394;42.692;23.314;2022-10-23T04:19:24;13.87;;;8.53;;
24277;SDS011;12394;42.692;23.314;2022-10-23T04:21:49;15.00;;;9.00;;
24277;SDS011;12394;42.692;23.314;2022-10-23T04:24:14;12.27;;;7.70;;
24277;SDS011;12394;42.692;23.314;2022-10-23T04:26:39;15.23;;;7.27;;
24277;SDS011;12394;42.692;23.314;2022-10-23T04:29:05;15.93;;;6.93;;
24277;SDS011;12394;42.692;23.314;2022-10-23T04:31:30;15.13;;;7.47;;
24277;SDS011;12394;42.692;23.314;2022-10-23T04:33:55;14.43;;;7.27;;
24277;SDS011;12394;42.692;23.314;2022-10-23T04:36:20;16.53;;;7.30;;
24277;SDS011;12394;42.692;23.314;2022-10-23T04:38:46;15.43;;;7.40;;
24277;SDS011;12394;42.692;23.314;2022-10-23T04:41:11;10.27;;;6.60;;
24277;SDS011;12394;42.692;23.314;2022-10-23T04:43:37;12.93;;;6.97;;
24277;SDS011;12394;42.692;23.314;2022-10-23T04:46:02;13.07;;;7.10;;
24277;SDS011;12394;42.692;23.314;2022-10-23T04:48:27;16.63;;;8.63;;
24277;SDS011;12394;42.692;23.314;2022-10-23T04:50:53;17.53;;;10.40;;
24277;SDS011;12394;42.692;23.314;2022-10-23T04:53:20;12.20;;;6.70;;
24277;SDS011;12394;42.692;23.314;2022-10-23T04:55:49;20.17;;;7.47;;
24277;SDS011;12394;42.692;23.314;2022-10-23T04:58:14;15.37;;;6.87;;
24277;SDS011;12394;42.692;23.314;2022-10-23T05:00:40;17.77;;;7.77;;
24277;SDS011;12394;42.692;23.314;2022-10-23T05:03:05;31.87;;;10.53;;
24277;SDS011;12394;42.692;23.314;2022-10-23T05:05:30;19.90;;;9.73;;
24277;SDS011;12394;42.692;23.314;2022-10-23T05:07:55;20.27;;;9.90;;
24277;SDS011;12394;42.692;23.314;2022-10-23T05:10:20;17.53;;;10.47;;
24277;SDS011;12394;42.692;23.314;2022-10-23T05:12:46;25.97;;;11.17;;
24277;SDS011;12394;42.692;23.314;2022-10-23T05:15:11;17.53;;;9.50;;
24277;SDS011;12394;42.692;23.314;2022-10-23T05:17:36;17.73;;;10.37;;
24277;SDS011;12394;42.692;23.314;2022-10-23T05:20:04;20.13;;;10.07;;
24277;SDS011;12394;42.692;23.314;2022-10-23T05:22:31;19.73;;;9.87;;
24277;SDS011;12394;42.692;23.314;2022-10-23T05:24:59;14.80;;;9.17;;
24277;SDS011;12394;42.692;23.314;2022-10-23T05:27:26;13.83;;;7.83;;
24277;SDS011;12394;42.692;23.314;2022-10-23T05:29:51;19.27;;;9.53;;
24277;SDS011;12394;42.692;23.314;2022-10-23T05:32:16;14.57;;;8.33;;
24277;SDS011;12394;42.692;23.314;2022-10-23T05:34:42;14.23;;;8.20;;
24277;SDS011;12394;42.692;23.314;2022-10-23T05:37:08;17.33;;;8.67;;
24277;SDS011;12394;42.692;23.314;2022-10-23T05:39:34;15.80;;;7.60;;
24277;SDS011;12394;42.692;23.314;2022-10-23T05:42:00;15.53;;;8.13;;
24277;SDS011;12394;42.692;23.314;2022-10-23T05:44:25;12.37;;;7.50;;
24277;SDS011;12394;42.692;23.314;2022-10-23T05:46:50;12.07;;;6.47;;
24277;SDS011;12394;42.692;23.314;2022-10-23T05:49:16;12.10;;;7.40;;
24277;SDS011;12394;42.692;23.314;2022-10-23T05:51:41;11.33;;;5.80;;
24277;SDS011;12394;42.692;23.314;2022-10-23T05:54:06;11.17;;;6.03;;
24277;SDS011;12394;42.692;23.314;2022-10-23T05:56:36;12.40;;;5.93;;
24277;SDS011;12394;42.692;23.314;2022-10-23T05:59:01;14.27;;;6.37;;
24277;SDS011;12394;42.692;23.314;2022-10-23T06:01:27;13.90;;;5.50;;
24277;SDS011;12394;42.692;23.314;2022-10-23T06:03:52;10.47;;;5.40;;
24277;SDS011;12394;42.692;23.314;2022-10-23T06:06:17;13.47;;;5.97;;
24277;SDS011;12394;42.692;23.314;2022-10-23T06:08:42;9.90;;;6.23;;
24277;SDS011;12394;42.692;23.314;2022-10-23T06:11:08;11.63;;;5.67;;
24277;SDS011;12394;42.692;23.314;2022-10-23T06:13:34;11.23;;;5.50;;
24277;SDS011;12394;42.692;23.314;2022-10-23T06:16:06;10.60;;;5.73;;
24277;SDS011;12394;42.692;23.314;2022-10-23T06:18:32;11.23;;;6.73;;
24277;SDS011;12394;42.692;23.314;2022-10-23T06:20:58;16.57;;;6.40;;
24277;SDS011;12394;42.692;23.314;2022-10-23T06:23:24;10.43;;;5.93;;
24277;SDS011;12394;42.692;23.314;2022-10-23T06:25:50;11.60;;;6.43;;
24277;SDS011;12394;42.692;23.314;2022-10-23T06:28:15;9.77;;;6.23;;
24277;SDS011;12394;42.692;23.314;2022-10-23T06:30:40;9.10;;;6.13;;
24277;SDS011;12394;42.692;23.314;2022-10-23T06:33:05;8.67;;;6.00;;
24277;SDS011;12394;42.692;23.314;2022-10-23T06:35:31;11.70;;;5.47;;
24277;SDS011;12394;42.692;23.314;2022-10-23T06:37:56;10.53;;;6.33;;
24277;SDS011;12394;42.692;23.314;2022-10-23T06:40:21;9.40;;;6.33;;
24277;SDS011;12394;42.692;23.314;2022-10-23T06:42:47;9.30;;;6.40;;
24277;SDS011;12394;42.692;23.314;2022-10-23T06:45:12;9.87;;;5.93;;
24277;SDS011;12394;42.692;23.314;2022-10-23T06:47:37;8.00;;;5.60;;
24277;SDS011;12394;42.692;23.314;2022-10-23T06:50:02;15.20;;;5.43;;
24277;SDS011;12394;42.692;23.314;2022-10-23T06:52:28;9.63;;;5.67;;
24277;SDS011;12394;42.692;23.314;2022-10-23T06:54:55;15.70;;;5.93;;
24277;SDS011;12394;42.692;23.314;2022-10-23T06:57:20;11.57;;;5.37;;
24277;SDS011;12394;42.692;23.314;2022-10-23T06:59:46;10.07;;;4.87;;
24277;SDS011;12394;42.692;23.314;2022-10-23T07:02:11;12.90;;;5.80;;
24277;SDS011;12394;42.692;23.314;2022-10-23T07:04:36;13.70;;;5.70;;
24277;SDS011;12394;42.692;23.314;2022-10-23T07:07:03;11.23;;;5.23;;
24277;SDS011;12394;42.692;23.314;2022-10-23T07:09:30;9.63;;;5.00;;
24277;SDS011;12394;42.692;23.314;2022-10-23T07:11:55;19.13;;;6.53;;
24277;SDS011;12394;42.692;23.314;2022-10-23T07:14:21;12.13;;;5.37;;
24277;SDS011;12394;42.692;23.314;2022-10-23T07:16:46;9.50;;;4.77;;
24277;SDS011;12394;42.692;23.314;2022-10-23T07:19:11;9.87;;;4.80;;
24277;SDS011;12394;42.692;23.314;2022-10-23T07:21:36;9.07;;;5.77;;
24277;SDS011;12394;42.692;23.314;2022-10-23T07:24:02;7.40;;;5.37;;
24277;SDS011;12394;42.692;23.314;2022-10-23T07:26:27;7.53;;;4.40;;
24277;SDS011;12394;42.692;23.314;2022-10-23T07:28:53;7.77;;;5.13;;
24277;SDS011;12394;42.692;23.314;2022-10-23T07:31:22;11.87;;;4.90;;
24277;SDS011;12394;42.692;23.314;2022-10-23T07:33:48;9.97;;;4.80;;
24277;SDS011;12394;42.692;23.314;2022-10-23T07:36:14;8.87;;;4.63;;
24277;SDS011;12394;42.692;23.314;2022-10-23T07:38:39;8.53;;;5.03;;
24277;SDS011;12394;42.692;23.314;2022-10-23T07:41:04;8.03;;;5.03;;
24277;SDS011;12394;42.692;23.314;2022-10-23T07:43:30;7.13;;;4.63;;
24277;SDS011;12394;42.692;23.314;2022-10-23T07:45:55;8.47;;;4.77;;
24277;SDS011;12394;42.692;23.314;2022-10-23T07:48:20;6.50;;;4.47;;
24277;SDS011;12394;42.692;23.314;2022-10-23T07:50:47;7.93;;;5.23;;
24277;SDS011;12394;42.692;23.314;2022-10-23T07:53:16;6.50;;;5.00;;
24277;SDS011;12394;42.692;23.314;2022-10-23T07:55:42;11.03;;;4.93;;
24277;SDS011;12394;42.692;23.314;2022-10-23T07:58:07;11.33;;;4.63;;
24277;SDS011;12394;42.692;23.314;2022-10-23T08:00:32;11.20;;;5.10;;
24277;SDS011;12394;42.692;23.314;2022-10-23T08:02:58;8.00;;;4.57;;
24277;SDS011;12394;42.692;23.314;2022-10-23T08:05:23;8.27;;;4.50;;
24277;SDS011;12394;42.692;23.314;2022-10-23T08:07:48;6.67;;;4.27;;
24277;SDS011;12394;42.692;23.314;2022-10-23T08:10:14;7.13;;;4.00;;
24277;SDS011;12394;42.692;23.314;2022-10-23T08:12:39;11.70;;;4.20;;
24277;SDS011;12394;42.692;23.314;2022-10-23T08:15:04;9.67;;;4.80;;
24277;SDS011;12394;42.692;23.314;2022-10-23T08:17:30;12.03;;;4.23;;
24277;SDS011;12394;42.692;23.314;2022-10-23T08:19:55;6.03;;;4.20;;
24277;SDS011;12394;42.692;23.314;2022-10-23T08:22:20;11.50;;;4.43;;
24277;SDS011;12394;42.692;23.314;2022-10-23T08:24:45;6.67;;;4.27;;
24277;SDS011;12394;42.692;23.314;2022-10-23T08:27:10;7.50;;;4.10;;
24277;SDS011;12394;42.692;23.314;2022-10-23T08:29:36;10.00;;;4.13;;
24277;SDS011;12394;42.692;23.314;2022-10-23T08:32:01;5.18;;;3.83;;
24277;SDS011;12394;42.692;23.314;2022-10-23T08:34:26;5.78;;;3.72;;
24277;SDS011;12394;42.692;23.314;2022-10-23T08:36:52;7.88;;;4.30;;
24277;SDS011;12394;42.692;23.314;2022-10-23T08:39:17;10.98;;;4.07;;
24277;SDS011;12394;42.692;23.314;2022-10-23T08:41:46;13.05;;;4.18;;
24277;SDS011;12394;42.692;23.314;2022-10-23T08:51:59;6.43;;;4.25;;
24277;SDS011;12394;42.692;23.314;2022-10-23T08:56:53;6.57;;;4.28;;
24277;SDS011;12394;42.692;23.314;2022-10-23T09:01:48;9.30;;;4.30;;
24277;SDS011;12394;42.692;23.314;2022-10-23T09:04:16;4.75;;;3.70;;
24277;SDS011;12394;42.692;23.314;2022-10-23T09:07:06;8.60;;;3.95;;
24277;SDS011;12394;42.692;23.314;2022-10-23T09:12:13;5.32;;;3.80;;
24277;SDS011;12394;42.692;23.314;2022-10-23T09:22:49;6.35;;;3.78;;
24277;SDS011;12394;42.692;23.314;2022-10-23T09:25:19;8.07;;;4.30;;
24277;SDS011;12394;42.692;23.314;2022-10-23T09:27:45;5.70;;;3.63;;
24277;SDS011;12394;42.692;23.314;2022-10-23T09:30:10;3.83;;;3.33;;
24277;SDS011;12394;42.692;23.314;2022-10-23T09:32:36;7.07;;;3.67;;
24277;SDS011;12394;42.692;23.314;2022-10-23T09:35:02;6.93;;;3.10;;
24277;SDS011;12394;42.692;23.314;2022-10-23T09:37:30;4.80;;;2.95;;
24277;SDS011;12394;42.692;23.314;2022-10-23T09:40:04;3.88;;;2.72;;
24277;SDS011;12394;42.692;23.314;2022-10-23T09:42:36;4.30;;;2.83;;
24277;SDS011;12394;42.692;23.314;2022-10-23T09:45:02;6.25;;;3.80;;
24277;SDS011;12394;42.692;23.314;2022-10-23T09:47:27;4.63;;;3.08;;
24277;SDS011;12394;42.692;23.314;2022-10-23T09:49:54;3.22;;;2.33;;
24277;SDS011;12394;42.692;23.314;2022-10-23T09:52:31;3.63;;;2.97;;
24277;SDS011;12394;42.692;23.314;2022-10-23T09:54:59;5.28;;;2.75;;
24277;SDS011;12394;42.692;23.314;2022-10-23T10:00:13;4.97;;;2.80;;
24277;SDS011;12394;42.692;23.314;2022-10-23T10:02:39;2.67;;;2.30;;
24277;SDS011;12394;42.692;23.314;2022-10-23T10:07:52;2.67;;;2.25;;
24277;SDS011;12394;42.692;23.314;2022-10-23T10:10:18;3.03;;;2.33;;
24277;SDS011;12394;42.692;23.314;2022-10-23T10:12:48;4.35;;;2.75;;
24277;SDS011;12394;42.692;23.314;2022-10-23T10:20:11;3.08;;;2.33;;
24277;SDS011;12394;42.692;23.314;2022-10-23T10:30:10;3.92;;;2.20;;
24277;SDS011;12394;42.692;23.314;2022-10-23T10:38:17;3.03;;;2.03;;
24277;SDS011;12394;42.692;23.314;2022-10-23T10:43:34;3.73;;;2.20;;
24277;SDS011;12394;42.692;23.314;2022-10-23T10:46:04;3.00;;;2.40;;
24277;SDS011;12394;42.692;23.314;2022-10-23T10:48:40;4.77;;;2.73;;
24277;SDS011;12394;42.692;23.314;2022-10-23T10:56:38;6.57;;;2.93;;
24277;SDS011;12394;42.692;23.314;2022-10-23T11:01:38;9.50;;;3.90;;
24277;SDS011;12394;42.692;23.314;2022-10-23T11:06:50;4.77;;;2.27;;
24277;SDS011;12394;42.692;23.314;2022-10-23T11:09:19;2.40;;;2.10;;
24277;SDS011;12394;42.692;23.314;2022-10-23T11:11:45;4.33;;;2.60;;
24277;SDS011;12394;42.692;23.314;2022-10-23T11:14:15;3.03;;;2.50;;
24277;SDS011;12394;42.692;23.314;2022-10-23T11:16:41;5.33;;;2.50;;
24277;SDS011;12394;42.692;23.314;2022-10-23T11:21:49;2.80;;;2.50;;
24277;SDS011;12394;42.692;23.314;2022-10-23T11:37:21;5.43;;;2.53;;
24277;SDS011;12394;42.692;23.314;2022-10-23T11:42:33;5.23;;;2.30;;
24277;SDS011;12394;42.692;23.314;2022-10-23T11:44:58;11.43;;;2.60;;
24277;SDS011;12394;42.692;23.314;2022-10-23T11:52:39;3.63;;;2.40;;
24277;SDS011;12394;42.692;23.314;2022-10-23T11:55:15;9.13;;;2.37;;
24277;SDS011;12394;42.692;23.314;2022-10-23T11:57:40;3.77;;;2.67;;
24277;SDS011;12394;42.692;23.314;2022-10-23T12:00:21;2.23;;;2.03;;
24277;SDS011;12394;42.692;23.314;2022-10-23T12:02:49;2.87;;;1.90;;
24277;SDS011;12394;42.692;23.314;2022-10-23T12:05:31;4.60;;;2.10;;
24277;SDS011;12394;42.692;23.314;2022-10-23T12:07:59;5.87;;;2.33;;
24277;SDS011;12394;42.692;23.314;2022-10-23T12:10:42;6.10;;;2.70;;
24277;SDS011;12394;42.692;23.314;2022-10-23T12:15:52;3.63;;;2.40;;
24277;SDS011;12394;42.692;23.314;2022-10-23T12:18:18;3.33;;;1.93;;
24277;SDS011;12394;42.692;23.314;2022-10-23T12:20:45;3.83;;;2.50;;
24277;SDS011;12394;42.692;23.314;2022-10-23T12:23:19;5.53;;;2.40;;
24277;SDS011;12394;42.692;23.314;2022-10-23T12:25:55;4.53;;;2.23;;
24277;SDS011;12394;42.692;23.314;2022-10-23T12:38:31;4.97;;;1.97;;
24277;SDS011;12394;42.692;23.314;2022-10-23T12:41:04;6.17;;;2.30;;
24277;SDS011;12394;42.692;23.314;2022-10-23T12:43:31;5.40;;;1.70;;
24277;SDS011;12394;42.692;23.314;2022-10-23T12:48:47;13.50;;;2.70;;
24277;SDS011;12394;42.692;23.314;2022-10-23T12:51:15;2.63;;;2.20;;
24277;SDS011;12394;42.692;23.314;2022-10-23T12:53:47;2.77;;;2.10;;
24277;SDS011;12394;42.692;23.314;2022-10-23T12:56:12;2.67;;;1.60;;
24277;SDS011;12394;42.692;23.314;2022-10-23T12:58:38;7.83;;;2.00;;
24277;SDS011;12394;42.692;23.314;2022-10-23T13:01:20;4.17;;;1.93;;
24277;SDS011;12394;42.692;23.314;2022-10-23T13:03:46;6.30;;;2.10;;
24277;SDS011;12394;42.692;23.314;2022-10-23T13:06:12;4.53;;;2.20;;
24277;SDS011;12394;42.692;23.314;2022-10-23T13:08:44;1.97;;;1.67;;
24277;SDS011;12394;42.692;23.314;2022-10-23T13:11:17;4.23;;;2.40;;
24277;SDS011;12394;42.692;23.314;2022-10-23T13:13:43;3.27;;;2.00;;
24277;SDS011;12394;42.692;23.314;2022-10-23T13:16:12;3.27;;;2.07;;
24277;SDS011;12394;42.692;23.314;2022-10-23T13:18:39;4.60;;;1.80;;
24277;SDS011;12394;42.692;23.314;2022-10-23T13:21:09;3.37;;;1.73;;
24277;SDS011;12394;42.692;23.314;2022-10-23T13:23:38;3.50;;;1.60;;
24277;SDS011;12394;42.692;23.314;2022-10-23T13:26:18;2.13;;;1.93;;
24277;SDS011;12394;42.692;23.314;2022-10-23T13:28:46;1.93;;;1.63;;
24277;SDS011;12394;42.692;23.314;2022-10-23T13:41:24;4.10;;;1.90;;
24277;SDS011;12394;42.692;23.314;2022-10-23T13:43:50;2.90;;;1.70;;
24277;SDS011;12394;42.692;23.314;2022-10-23T13:46:16;2.43;;;1.90;;
24277;SDS011;12394;42.692;23.314;2022-10-23T13:48:41;2.23;;;1.93;;
24277;SDS011;12394;42.692;23.314;2022-10-23T13:51:14;12.63;;;2.03;;
24277;SDS011;12394;42.692;23.314;2022-10-23T13:53:40;4.13;;;2.03;;
24277;SDS011;12394;42.692;23.314;2022-10-23T13:56:05;5.67;;;2.40;;
24277;SDS011;12394;42.692;23.314;2022-10-23T13:58:30;2.00;;;1.57;;
24277;SDS011;12394;42.692;23.314;2022-10-23T14:00:56;2.73;;;1.80;;
24277;SDS011;12394;42.692;23.314;2022-10-23T14:03:21;3.80;;;1.93;;
24277;SDS011;12394;42.692;23.314;2022-10-23T14:05:49;4.20;;;2.37;;
24277;SDS011;12394;42.692;23.314;2022-10-23T14:08:14;2.90;;;1.90;;
24277;SDS011;12394;42.692;23.314;2022-10-23T14:10:39;2.77;;;2.00;;
24277;SDS011;12394;42.692;23.314;2022-10-23T14:13:04;2.10;;;1.90;;
24277;SDS011;12394;42.692;23.314;2022-10-23T14:15:30;6.93;;;2.70;;
24277;SDS011;12394;42.692;23.314;2022-10-23T14:17:55;2.47;;;1.90;;
24277;SDS011;12394;42.692;23.314;2022-10-23T14:20:21;3.00;;;1.77;;
24277;SDS011;12394;42.692;23.314;2022-10-23T14:22:46;3.97;;;2.13;;
24277;SDS011;12394;42.692;23.314;2022-10-23T14:25:11;3.60;;;1.87;;
24277;SDS011;12394;42.692;23.314;2022-10-23T14:27:36;4.50;;;2.20;;
24277;SDS011;12394;42.692;23.314;2022-10-23T14:30:02;2.43;;;2.03;;
24277;SDS011;12394;42.692;23.314;2022-10-23T14:32:28;3.17;;;2.17;;
24277;SDS011;12394;42.692;23.314;2022-10-23T14:34:56;5.93;;;2.30;;
24277;SDS011;12394;42.692;23.314;2022-10-23T14:37:22;7.17;;;2.20;;
24277;SDS011;12394;42.692;23.314;2022-10-23T14:39:47;4.10;;;2.50;;
24277;SDS011;12394;42.692;23.314;2022-10-23T14:42:12;3.87;;;2.70;;
24277;SDS011;12394;42.692;23.314;2022-10-23T14:44:38;5.30;;;2.73;;
24277;SDS011;12394;42.692;23.314;2022-10-23T14:47:03;3.60;;;2.50;;
24277;SDS011;12394;42.692;23.314;2022-10-23T14:49:29;5.60;;;2.83;;
24277;SDS011;12394;42.692;23.314;2022-10-23T14:51:55;3.10;;;2.60;;
24277;SDS011;12394;42.692;23.314;2022-10-23T14:54:20;5.40;;;2.23;;
24277;SDS011;12394;42.692;23.314;2022-10-23T14:56:45;2.70;;;2.30;;
24277;SDS011;12394;42.692;23.314;2022-10-23T14:59:11;3.57;;;2.27;;
24277;SDS011;12394;42.692;23.314;2022-10-23T15:01:38;3.90;;;2.33;;
24277;SDS011;12394;42.692;23.314;2022-10-23T15:04:04;5.20;;;2.80;;
24277;SDS011;12394;42.692;23.314;2022-10-23T15:06:29;8.50;;;2.80;;
24277;SDS011;12394;42.692;23.314;2022-10-23T15:08:54;4.60;;;2.40;;
24277;SDS011;12394;42.692;23.314;2022-10-23T15:11:20;3.20;;;2.37;;
24277;SDS011;12394;42.692;23.314;2022-10-23T15:13:45;3.17;;;2.47;;
24277;SDS011;12394;42.692;23.314;2022-10-23T15:16:11;2.40;;;2.00;;
24277;SDS011;12394;42.692;23.314;2022-10-23T15:18:56;5.47;;;2.80;;
24277;SDS011;12394;42.692;23.314;2022-10-23T15:21:21;2.77;;;2.17;;
24277;SDS011;12394;42.692;23.314;2022-10-23T15:23:47;3.00;;;2.40;;
24277;SDS011;12394;42.692;23.314;2022-10-23T15:26:13;3.00;;;2.33;;
24277;SDS011;12394;42.692;23.314;2022-10-23T15:28:44;4.33;;;2.40;;
24277;SDS011;12394;42.692;23.314;2022-10-23T15:33:53;5.17;;;2.47;;
24277;SDS011;12394;42.692;23.314;2022-10-23T15:36:18;3.47;;;2.33;;
24277;SDS011;12394;42.692;23.314;2022-10-23T15:38:43;3.33;;;2.40;;
24277;SDS011;12394;42.692;23.314;2022-10-23T15:41:12;3.50;;;2.37;;
24277;SDS011;12394;42.692;23.314;2022-10-23T15:43:38;5.27;;;2.43;;
24277;SDS011;12394;42.692;23.314;2022-10-23T15:46:03;4.73;;;2.80;;
24277;SDS011;12394;42.692;23.314;2022-10-23T15:48:28;4.80;;;2.77;;
24277;SDS011;12394;42.692;23.314;2022-10-23T15:50:54;4.27;;;2.80;;
24277;SDS011;12394;42.692;23.314;2022-10-23T15:53:19;6.17;;;3.43;;
24277;SDS011;12394;42.692;23.314;2022-10-23T15:55:45;6.33;;;3.17;;
24277;SDS011;12394;42.692;23.314;2022-10-23T15:58:29;7.23;;;3.33;;
24277;SDS011;12394;42.692;23.314;2022-10-23T16:00:55;6.80;;;3.43;;
24277;SDS011;12394;42.692;23.314;2022-10-23T16:03:20;7.70;;;3.50;;
24277;SDS011;12394;42.692;23.314;2022-10-23T16:05:45;9.97;;;3.60;;
24277;SDS011;12394;42.692;23.314;2022-10-23T16:08:10;5.87;;;3.13;;
24277;SDS011;12394;42.692;23.314;2022-10-23T16:10:40;5.93;;;3.83;;
24277;SDS011;12394;42.692;23.314;2022-10-23T16:13:05;4.23;;;2.97;;
24277;SDS011;12394;42.692;23.314;2022-10-23T16:15:33;5.47;;;3.57;;
24277;SDS011;12394;42.692;23.314;2022-10-23T16:17:58;14.03;;;3.60;;
24277;SDS011;12394;42.692;23.314;2022-10-23T16:20:24;7.70;;;3.43;;
24277;SDS011;12394;42.692;23.314;2022-10-23T16:22:49;5.20;;;3.27;;
24277;SDS011;12394;42.692;23.314;2022-10-23T16:25:14;9.73;;;4.63;;
24277;SDS011;12394;42.692;23.314;2022-10-23T16:27:40;7.20;;;4.10;;
24277;SDS011;12394;42.692;23.314;2022-10-23T16:30:05;7.70;;;4.73;;
24277;SDS011;12394;42.692;23.314;2022-10-23T16:32:33;5.23;;;3.73;;
24277;SDS011;12394;42.692;23.314;2022-10-23T16:34:58;4.50;;;3.63;;
24277;SDS011;12394;42.692;23.314;2022-10-23T16:37:23;4.97;;;3.40;;
24277;SDS011;12394;42.692;23.314;2022-10-23T16:39:49;5.00;;;2.80;;
24277;SDS011;12394;42.692;23.314;2022-10-23T16:42:14;2.60;;;2.40;;